Time;durP1;ratioP1;P1;durP2;ratioP2;P2;SDS_P1;SDS_P2;PMS_P1;PMS_P2;Temp;Humidity;BMP_temperature;BMP_pressure;BME280_temperature;BME280_humidity;BME280_pressure;Samples;Min_cycle;Max_cycle;Signal;HPM_P1;HPM_P2
2024/01/28 00:03:47;;;;;;;1999.90;999.90;;;;;;;2.04;100.00;103229.13;10417415;28;20054;-63
2024/01/28 00:08:50;;;;;;;1999.90;999.90;;;;;;;2.01;100.00;103214.44;10418168;28;20084;-66
2024/01/28 00:13:52;;;;;;;1999.90;999.90;;;;;;;1.65;100.00;103212.09;10417445;28;20045;-66
2024/01/28 00:18:58;;;;;;;1999.90;999.90;;;;;;;1.83;100.00;103190.84;10417737;28;20052;-64
2024/01/28 00:24:04;;;;;;;1999.90;999.90;;;;;;;1.59;100.00;103188.72;10399362;28;20057;-63
2024/01/28 00:29:07;;;;;;;1999.90;999.90;;;;;;;1.75;100.00;103200.19;10399862;28;20053;-63
2024/01/28 00:34:09;;;;;;;1999.90;999.90;;;;;;;1.38;100.00;103182.31;10417175;28;20053;-63
2024/01/28 00:39:15;;;;;;;1999.90;999.90;;;;;;;1.46;100.00;103166.94;10398887;28;20057;-64
2024/01/28 00:44:19;;;;;;;1999.90;999.90;;;;;;;1.32;100.00;103163.25;10416868;28;20057;-67
2024/01/28 00:49:29;;;;;;;1999.90;999.90;;;;;;;1.23;100.00;103164.81;10416759;28;20058;-67
2024/01/28 00:54:31;;;;;;;1999.90;999.90;;;;;;;1.52;100.00;103172.25;10398481;28;20443;-67
2024/01/28 00:59:34;;;;;;;1999.90;999.90;;;;;;;1.67;100.00;103163.91;10415686;28;20488;-69
2024/01/28 01:04:36;;;;;;;1999.90;999.90;;;;;;;1.58;100.00;103177.53;10415596;28;20175;-69
2024/01/28 01:09:38;;;;;;;1999.90;999.90;;;;;;;1.27;100.00;103176.06;10416048;28;20099;-67
2024/01/28 01:14:41;;;;;;;1999.90;999.90;;;;;;;1.21;100.00;103173.34;10398409;28;20049;-67
2024/01/28 01:19:43;;;;;;;1999.90;999.90;;;;;;;1.51;100.00;103167.91;10415770;28;20103;-67
2024/01/28 01:24:46;;;;;;;1999.90;999.90;;;;;;;1.40;100.00;103165.13;10415147;28;20087;-67
2024/01/28 01:29:49;;;;;;;1999.90;999.90;;;;;;;0.96;100.00;103172.88;10415064;28;20136;-67
2024/01/28 01:34:51;;;;;;;1999.90;999.90;;;;;;;1.19;100.00;103164.72;10415560;28;20046;-67
2024/01/28 01:39:54;;;;;;;1999.90;999.90;;;;;;;1.50;100.00;103166.19;10428121;22;20149;-65
2024/01/28 01:44:57;;;;;;;1999.90;999.90;;;;;;;1.25;100.00;103160.56;10415554;28;20056;-66
2024/01/28 01:49:59;;;;;;;1999.90;999.90;;;;;;;1.40;100.00;103153.94;10397975;28;20059;-65
2024/01/28 01:55:02;;;;;;;1999.90;999.90;;;;;;;1.01;100.00;103165.22;10415291;28;20049;-66
2024/01/28 02:00:05;;;;;;;1999.90;999.90;;;;;;;1.16;100.00;103157.81;10397061;28;20396;-66
2024/01/28 02:05:08;;;;;;;1999.90;999.90;;;;;;;1.09;100.00;103154.22;10380838;28;20049;-66
2024/01/28 02:10:10;;;;;;;1999.90;999.90;;;;;;;1.07;100.00;103149.88;10396914;28;20050;-66
2024/01/28 02:15:13;;;;;;;1999.90;999.90;;;;;;;1.00;100.00;103158.34;10414295;28;20049;-66
2024/01/28 02:20:16;;;;;;;1999.90;999.90;;;;;;;0.88;100.00;103156.38;10414109;28;20053;-65
2024/01/28 02:25:18;;;;;;;1999.90;999.90;;;;;;;0.92;100.00;103155.59;10414133;28;20397;-65
2024/01/28 02:30:21;;;;;;;1999.90;999.90;;;;;;;0.73;100.00;103152.63;10404354;28;20052;-66
2024/01/28 02:35:23;;;;;;;1999.90;999.90;;;;;;;0.42;100.00;103147.63;10421943;28;20137;-66
2024/01/28 02:40:25;;;;;;;1999.90;999.90;;;;;;;0.63;100.00;103147.25;10403277;28;20158;-66
2024/01/28 02:45:28;;;;;;;1999.90;999.90;;;;;;;0.74;100.00;103136.31;10403957;28;20059;-66
2024/01/28 02:50:30;;;;;;;1999.90;999.90;;;;;;;0.65;100.00;103133.53;10421278;28;20125;-66
2024/01/28 02:55:34;;;;;;;1999.90;999.90;;;;;;;0.91;100.00;103121.19;10387563;28;20089;-65
2024/01/28 03:00:37;;;;;;;1999.90;999.90;;;;;;;1.05;100.00;103100.81;10402937;28;20053;-65
2024/01/28 03:05:40;;;;;;;1999.90;999.90;;;;;;;0.72;100.00;103091.59;10420724;28;20045;-65
2024/01/28 03:10:42;;;;;;;1999.90;999.90;;;;;;;0.92;100.00;103084.25;10420533;28;20133;-65
2024/01/28 03:15:45;;;;;;;1999.90;999.90;;;;;;;0.94;100.00;103081.66;10420281;28;20053;-65
2024/01/28 03:20:48;;;;;;;1999.90;999.90;;;;;;;0.88;100.00;103079.84;10420062;28;20049;-65
2024/01/28 03:25:50;;;;;;;1999.90;999.90;;;;;;;0.78;100.00;103084.81;10419867;28;20059;-65
2024/01/28 03:30:52;;;;;;;1999.90;999.90;;;;;;;0.72;100.00;103070.97;10419730;28;20049;-65
2024/01/28 03:35:56;;;;;;;1999.90;999.90;;;;;;;0.74;100.00;103078.72;10418897;28;20076;-65
2024/01/28 03:40:58;;;;;;;1999.90;999.90;;;;;;;0.89;100.00;103075.56;10418874;28;20136;-65
2024/01/28 03:46:01;;;;;;;1999.90;999.90;;;;;;;0.54;100.00;103070.59;10401583;28;20053;-65
2024/01/28 03:51:04;;;;;;;1999.90;999.90;;;;;;;0.58;100.00;103056.91;10401389;28;20413;-65
2024/01/28 03:56:06;;;;;;;1999.90;999.90;;;;;;;0.64;100.00;103064.78;10401245;28;20046;-65
2024/01/28 04:01:09;;;;;;;1999.90;999.90;;;;;;;0.50;100.00;103066.19;10400861;28;20156;-65
2024/01/28 04:06:11;;;;;;;1999.90;999.90;;;;;;;0.60;100.00;103072.41;10368675;28;20104;-65
2024/01/28 04:11:14;;;;;;;1999.90;999.90;;;;;;;0.62;100.00;103063.84;10418146;28;20061;-65
2024/01/28 04:16:16;;;;;;;1999.90;999.90;;;;;;;0.70;100.00;103067.47;10417983;28;20049;-65
2024/01/28 04:21:18;;;;;;;1999.90;999.90;;;;;;;0.68;100.00;103051.09;10400214;28;20056;-65
2024/01/28 04:26:22;;;;;;;1999.90;999.90;;;;;;;0.68;100.00;103053.66;10416915;28;20084;-65
2024/01/28 04:31:26;;;;;;;1999.90;999.90;;;;;;;0.75;100.00;103044.34;10416732;28;20046;-65
2024/01/28 04:36:29;;;;;;;1999.90;999.90;;;;;;;0.83;100.00;103024.75;10416468;28;20493;-65
2024/01/28 04:41:31;;;;;;;1999.90;999.90;;;;;;;0.80;100.00;103024.66;10398616;28;20408;-65
2024/01/28 04:46:33;;;;;;;1999.90;999.90;;;;;;;0.93;100.00;103028.38;10416765;28;20056;-65
2024/01/28 04:51:36;;;;;;;1999.90;999.90;;;;;;;0.72;100.00;103013.34;10416315;28;20120;-65
2024/01/28 04:56:38;;;;;;;1999.90;999.90;;;;;;;0.79;100.00;103015.22;10415898;28;20132;-65
2024/01/28 05:01:41;;;;;;;1999.90;999.90;;;;;;;0.74;100.00;103004.81;10416286;28;20046;-65
2024/01/28 05:06:43;;;;;;;1999.90;999.90;;;;;;;0.94;100.00;102996.53;10416180;28;20527;-65
2024/01/28 05:11:47;;;;;;;1999.90;999.90;;;;;;;0.86;100.00;102993.00;10416138;28;20052;-65
2024/01/28 05:16:49;;;;;;;1999.90;999.90;;;;;;;0.92;100.00;102982.75;10397812;28;20057;-65
2024/01/28 05:21:51;;;;;;;1999.90;999.90;;;;;;;1.11;100.00;102979.66;10415323;28;20472;-65
2024/01/28 05:26:54;;;;;;;1999.90;999.90;;;;;;;0.92;100.00;102983.66;10398326;28;20071;-65
2024/01/28 05:31:56;;;;;;;1999.90;999.90;;;;;;;0.69;100.00;102978.06;10415723;28;20046;-65
2024/01/28 05:36:58;;;;;;;1999.90;999.90;;;;;;;0.86;100.00;102972.34;10398173;28;20060;-65
2024/01/28 05:42:02;;;;;;;1999.90;999.90;;;;;;;0.90;100.00;102979.28;10414744;28;20065;-65
2024/01/28 05:47:05;;;;;;;1999.90;999.90;;;;;;;0.67;100.00;102966.88;10415408;28;20060;-65
2024/01/28 05:52:07;;;;;;;1999.90;999.90;;;;;;;0.71;100.00;102971.22;10397218;28;20064;-65
2024/01/28 05:57:10;;;;;;;1999.90;999.90;;;;;;;0.72;100.00;102965.25;10414606;28;20407;-65
2024/01/28 06:02:13;;;;;;;1999.90;999.90;;;;;;;0.68;100.00;102954.84;10418019;28;20055;-65
2024/01/28 06:07:15;;;;;;;1999.90;999.90;;;;;;;0.83;100.00;102943.94;10423005;28;20049;-65
2024/01/28 06:12:18;;;;;;;1999.90;999.90;;;;;;;0.74;100.00;102944.63;10405253;28;20112;-65
2024/01/28 06:17:21;;;;;;;1999.90;999.90;;;;;;;0.81;100.00;102924.97;10422556;28;20049;-65
2024/01/28 06:22:23;;;;;;;1999.90;999.90;;;;;;;0.69;100.00;102921.34;10421690;28;20085;-65
2024/01/28 06:27:26;;;;;;;1999.90;999.90;;;;;;;0.79;100.00;102924.06;10422209;28;20060;-65
2024/01/28 06:32:28;;;;;;;1999.90;999.90;;;;;;;0.89;100.00;102905.31;10421422;28;20551;-65
2024/01/28 06:37:31;;;;;;;1999.90;999.90;;;;;;;0.73;100.00;102899.91;10404190;28;20080;-65
2024/01/28 06:42:33;;;;;;;1999.90;999.90;;;;;;;0.80;100.00;102892.28;10403265;28;20053;-65
2024/01/28 06:47:35;;;;;;;1999.90;999.90;;;;;;;0.77;100.00;102899.97;10421407;28;20049;-65
2024/01/28 06:52:38;;;;;;;1999.90;999.90;;;;;;;0.67;100.00;102896.34;10403693;28;20049;-65
2024/01/28 06:57:40;;;;;;;1999.90;999.90;;;;;;;0.74;100.00;102893.06;10421020;28;20050;-65
2024/01/28 07:02:45;;;;;;;1999.90;999.90;;;;;;;0.79;100.00;102887.97;10420202;28;20128;-65
2024/01/28 07:07:47;;;;;;;1999.90;999.90;;;;;;;0.78;100.00;102881.09;10402524;28;20381;-65
2024/01/28 07:12:49;;;;;;;1999.90;999.90;;;;;;;0.95;100.00;102883.94;10420130;28;20060;-65
2024/01/28 07:17:52;;;;;;;1999.90;999.90;;;;;;;0.87;100.00;102886.38;10420335;28;20055;-65
2024/01/28 07:22:55;;;;;;;1999.90;999.90;;;;;;;0.97;100.00;102882.25;10420039;28;20119;-65
2024/01/28 07:27:57;;;;;;;1999.90;999.90;;;;;;;1.03;100.00;102892.69;10419881;28;20060;-65
2024/01/28 07:33:00;;;;;;;1999.90;999.90;;;;;;;1.09;100.00;102892.75;10419740;28;20049;-65
2024/01/28 07:38:03;;;;;;;1999.90;999.90;;;;;;;0.99;100.00;102896.88;10418645;28;20054;-65
2024/01/28 07:43:06;;;;;;;1999.90;999.90;;;;;;;1.17;100.00;102898.91;10385389;28;20053;-65
2024/01/28 07:48:08;;;;;;;1999.90;999.90;;;;;;;1.30;99.97;102887.06;10419142;28;20132;-65
2024/01/28 07:53:12;;;;;;;1999.90;999.90;;;;;;;1.19;99.69;102884.31;10401463;28;20100;-65
2024/01/28 07:58:14;;;;;;;1999.90;999.90;;;;;;;1.33;98.85;102876.78;10401241;28;20045;-65
2024/01/28 08:03:16;;;;;;;1999.90;999.90;;;;;;;1.30;98.59;102890.50;10418461;28;20049;-65
2024/01/28 08:08:19;;;;;;;1999.90;999.90;;;;;;;1.42;97.90;102882.06;10418381;28;20045;-65
2024/01/28 08:13:22;;;;;;;1999.90;999.90;;;;;;;1.38;97.32;102879.41;10418136;28;20128;-65
2024/01/28 08:18:24;;;;;;;1999.90;999.90;;;;;;;1.80;94.65;102876.56;10417928;28;20133;-65
2024/01/28 08:23:27;;;;;;;1999.90;999.90;;;;;;;1.73;93.86;102876.44;10399531;28;20052;-65
2024/01/28 08:28:29;;;;;;;1999.90;999.90;;;;;;;2.81;90.85;102881.06;10416919;28;20060;-65
2024/01/28 08:33:32;;;;;;;1999.90;999.90;;;;;;;5.11;81.46;102864.56;10417443;28;20049;-65
2024/01/28 08:38:34;;;;;;;1999.90;999.90;;;;;;;5.94;75.30;102858.25;10416954;28;20049;-65
2024/01/28 08:43:37;;;;;;;1999.90;999.90;;;;;;;6.18;73.79;102870.25;10399463;28;20046;-65
2024/01/28 08:48:39;;;;;;;1999.90;999.90;;;;;;;7.46;70.12;102860.50;10416238;28;20519;-65
2024/01/28 08:53:45;;;;;;;1999.90;999.90;;;;;;;7.51;69.26;102853.50;10398556;28;20067;-65
2024/01/28 08:58:47;;;;;;;1999.90;999.90;;;;;;;5.59;70.94;102846.25;10398377;28;20588;-65
2024/01/28 09:03:50;;;;;;;1999.90;999.90;;;;;;;8.86;69.51;102835.91;10416302;28;20059;-64
2024/01/28 09:08:52;;;;;;;1999.90;999.90;;;;;;;9.46;66.78;102819.09;10398852;28;20045;-64
2024/01/28 09:13:54;;;;;;;1999.90;999.90;;;;;;;8.41;63.14;102829.69;10416123;28;20153;-64
2024/01/28 09:18:57;;;;;;;1999.90;999.90;;;;;;;10.52;61.92;102834.22;10415372;28;20053;-64
2024/01/28 09:23:59;;;;;;;1999.90;999.90;;;;;;;9.52;63.36;102828.56;10415850;28;20045;-64
2024/01/28 09:29:02;;;;;;;1999.90;999.90;;;;;;;10.17;61.61;102828.03;10415101;28;20571;-63
2024/01/28 09:34:05;;;;;;;1999.90;999.90;;;;;;;11.62;60.33;102826.03;10415667;28;20100;-64
2024/01/28 09:39:07;;;;;;;1999.90;999.90;;;;;;;13.35;57.21;102822.09;10423195;28;20067;-64
2024/01/28 09:44:10;;;;;;;1999.90;999.90;;;;;;;13.75;54.81;102828.50;10423837;28;20045;-64
2024/01/28 09:49:12;;;;;;;1999.90;999.90;;;;;;;11.89;55.67;102817.31;10423252;28;20080;-64
2024/01/28 09:54:15;;;;;;;1999.90;999.90;;;;;;;13.28;53.57;102814.44;10389976;28;20046;-64
2024/01/28 09:59:17;;;;;;;1999.90;999.90;;;;;;;14.83;51.34;102808.31;10423325;28;20056;-64
2024/01/28 10:04:19;;;;;;;1999.90;999.90;;;;;;;14.76;48.98;102790.19;10388632;28;20530;-64
2024/01/28 10:09:22;;;;;;;1999.90;999.90;;;;;;;15.10;48.82;102794.00;10422972;28;20133;-64
2024/01/28 10:14:24;;;;;;;1999.90;999.90;;;;;;;14.88;49.48;102800.22;10422770;28;20079;-64
2024/01/28 10:19:27;;;;;;;1999.90;999.90;;;;;;;13.76;49.53;102795.13;10388931;28;20050;-64
2024/01/28 10:24:29;;;;;;;1999.90;999.90;;;;;;;14.95;46.90;102784.97;10404205;28;20143;-64
2024/01/28 10:29:33;;;;;;;1999.90;999.90;;;;;;;15.02;47.96;102781.13;10404681;28;20049;-64
2024/01/28 10:34:35;;;;;;;1999.90;999.90;;;;;;;9.52;56.19;102786.72;10421949;28;20045;-64
2024/01/28 10:39:40;;;;;;;1999.90;999.90;;;;;;;7.84;62.77;102787.03;10421036;28;20053;-64
2024/01/28 10:44:49;;;;;;;1999.90;999.90;;;;;;;8.32;66.08;102776.75;10403641;28;20389;-64
2024/01/28 10:49:59;;;;;;;1999.90;999.90;;;;;;;7.18;64.47;102774.84;10402976;28;20404;-64
2024/01/28 10:55:01;;;;;;;1999.90;999.90;;;;;;;7.57;64.28;102764.81;10403741;28;20045;-66
2024/01/28 11:00:10;;;;;;;1999.90;999.90;;;;;;;8.19;62.24;102747.34;10420426;28;20132;-66
2024/01/28 11:05:13;;;;;;;1999.90;999.90;;;;;;;7.33;65.14;102752.94;10403550;28;20103;-66
2024/01/28 11:10:15;;;;;;;1999.90;999.90;;;;;;;6.77;65.90;102742.28;10402417;28;20045;-65
2024/01/28 11:15:20;;;;;;;1999.90;999.90;;;;;;;7.83;64.50;102735.75;10402304;28;20381;-66
2024/01/28 11:20:32;;;;;;;1999.90;999.90;;;;;;;7.96;65.18;102726.00;10402765;28;20079;-65
2024/01/28 11:25:37;;;;;;;1999.90;999.90;;;;;;;10.06;58.91;102714.88;10420059;28;20045;-65
2024/01/28 11:30:40;;;;;;;1999.90;999.90;;;;;;;12.21;53.52;102706.94;10402374;28;20107;-66
2024/01/28 11:35:44;;;;;;;1999.90;999.90;;;;;;;12.88;53.37;102700.19;10401476;28;20409;-64
2024/01/28 11:40:52;;;;;;;1999.90;999.90;;;;;;;8.90;58.95;102706.09;10401207;28;20493;-64
2024/01/28 11:45:57;;;;;;;1999.90;999.90;;;;;;;9.23;59.12;102701.06;10401133;28;20071;-64
2024/01/28 11:51:01;;;;;;;1999.90;999.90;;;;;;;8.13;61.66;102710.06;10418417;28;20551;-64
2024/01/28 11:56:10;;;;;;;1999.90;999.90;;;;;;;8.35;61.80;102701.00;10418185;28;20485;-65
2024/01/28 12:01:12;;;;;;;1999.90;999.90;;;;;;;8.02;62.81;102694.59;10400029;28;20060;-64
2024/01/28 12:06:16;;;;;;;1999.90;999.90;;;;;;;8.09;62.87;102693.59;10417787;28;20489;-64
2024/01/28 12:11:20;;;;;;;1999.90;999.90;;;;;;;8.49;62.53;102679.91;10417564;28;20049;-64
2024/01/28 12:16:23;;;;;;;1999.90;999.90;;;;;;;7.94;63.03;102684.28;10399853;28;20500;-64
2024/01/28 12:21:27;;;;;;;1999.90;999.90;;;;;;;7.85;63.23;102666.19;10417786;28;20051;-64
2024/01/28 12:26:32;;;;;;;1999.90;999.90;;;;;;;7.83;63.26;102654.91;10400265;28;20057;-64
2024/01/28 12:31:34;;;;;;;1999.90;999.90;;;;;;;7.53;65.07;102651.91;10416854;28;20053;-64
2024/01/28 12:36:37;;;;;;;1999.90;999.90;;;;;;;7.90;63.66;102650.44;10417295;28;20057;-63
2024/01/28 12:41:40;;;;;;;1999.90;999.90;;;;;;;7.69;64.58;102649.91;10416743;28;20132;-64
2024/01/28 12:46:43;;;;;;;1999.90;999.90;;;;;;;7.50;65.71;102635.41;10398755;28;20489;-63
2024/01/28 12:51:45;;;;;;;1999.90;999.90;;;;;;;7.37;64.68;102619.97;10416821;28;20041;-63
2024/01/28 12:56:48;;;;;;;1999.90;999.90;;;;;;;7.42;66.06;102606.88;10415974;28;20532;-63
2024/01/28 13:01:50;;;;;;;1999.90;999.90;;;;;;;7.62;64.99;102604.81;10415798;28;20485;-63
2024/01/28 13:06:53;;;;;;;1999.90;999.90;;;;;;;7.50;64.30;102593.72;10416348;28;20053;-63
2024/01/28 13:11:55;;;;;;;1999.90;999.90;;;;;;;7.68;64.74;102596.03;10415878;28;20075;-65
2024/01/28 13:16:57;;;;;;;1999.90;999.90;;;;;;;7.55;65.71;102582.34;10398557;28;20065;-65
2024/01/28 13:22:00;;;;;;;1999.90;999.90;;;;;;;7.77;66.19;102580.25;10415255;28;20412;-65
2024/01/28 13:27:03;;;;;;;1999.90;999.90;;;;;;;7.80;64.31;102564.56;10397726;28;20067;-65
2024/01/28 13:32:06;;;;;;;1999.90;999.90;;;;;;;7.66;66.18;102569.13;10415032;28;20396;-66
2024/01/28 13:37:09;;;;;;;1999.90;999.90;;;;;;;8.01;64.88;102565.06;10415468;28;20084;-66
2024/01/28 13:42:11;;;;;;;1999.90;999.90;;;;;;;7.96;65.64;102559.91;10414799;28;20141;-65
2024/01/28 13:47:14;;;;;;;1999.90;999.90;;;;;;;7.58;66.94;102564.06;10397889;28;20111;-66
2024/01/28 13:57:21;;;;;;;1999.90;999.90;;;;;;;8.33;64.48;102542.69;10332325;28;20054;-66
2024/01/28 14:02:23;;;;;;;1999.90;999.90;;;;;;;8.71;64.05;102541.94;10316694;28;20078;-66
2024/01/28 14:07:25;;;;;;;1999.90;999.90;;;;;;;8.15;64.61;102544.78;10315863;28;20431;-66
2024/01/28 14:12:28;;;;;;;1999.90;999.90;;;;;;;7.90;67.36;102536.56;10316448;28;20046;-66
2024/01/28 14:17:32;;;;;;;1999.90;999.90;;;;;;;8.28;66.47;102528.88;10333562;28;20084;-66
2024/01/28 14:22:37;;;;;;;1999.90;999.90;;;;;;;8.37;65.75;102523.47;10334698;28;20050;-66
2024/01/28 14:27:40;;;;;;;1999.90;999.90;;;;;;;8.12;65.38;102520.47;10340852;28;20064;-66
2024/01/28 14:32:42;;;;;;;1999.90;999.90;;;;;;;7.93;67.24;102515.63;10340056;28;20513;-66
2024/01/28 14:37:47;;;;;;;1999.90;999.90;;;;;;;7.75;68.53;102514.25;10339786;28;20053;-65
2024/01/28 14:42:50;;;;;;;1999.90;999.90;;;;;;;7.63;68.82;102511.81;10322663;28;20580;-65
2024/01/28 14:47:53;;;;;;;1999.90;999.90;;;;;;;7.68;68.89;102504.78;10340061;28;20050;-65
2024/01/28 14:52:56;;;;;;;1999.90;999.90;;;;;;;7.62;69.91;102497.09;10339699;28;20065;-65
2024/01/28 14:57:59;;;;;;;1999.90;999.90;;;;;;;7.70;69.56;102496.94;10339912;28;20133;-65
2024/01/28 15:03:01;;;;;;;1999.90;999.90;;;;;;;7.54;69.65;102496.38;10321642;28;20498;-65
2024/01/28 15:08:05;;;;;;;1999.90;999.90;;;;;;;7.24;71.73;102495.97;10339333;28;20081;-65
2024/01/28 15:13:07;;;;;;;1999.90;999.90;;;;;;;7.17;73.03;102497.81;10339133;28;20076;-65
2024/01/28 15:18:11;;;;;;;1999.90;999.90;;;;;;;7.02;73.94;102492.88;10338925;28;20133;-65
2024/01/28 15:23:14;;;;;;;1999.90;999.90;;;;;;;6.84;74.48;102486.19;10338141;28;20051;-65
2024/01/28 15:28:17;;;;;;;1999.90;999.90;;;;;;;7.01;73.82;102483.31;10338608;28;20057;-65
2024/01/28 15:33:26;;;;;;;1999.90;999.90;;;;;;;7.04;73.11;102480.66;10337608;28;20383;-65
2024/01/28 15:38:30;;;;;;;1999.90;999.90;;;;;;;6.82;74.57;102483.59;10338169;28;20074;-65
2024/01/28 15:43:32;;;;;;;1999.90;999.90;;;;;;;6.69;75.46;102477.72;10320753;28;20054;-65
2024/01/28 15:48:37;;;;;;;1999.90;999.90;;;;;;;6.45;75.85;102470.25;10320332;28;20058;-65
2024/01/28 15:53:40;;;;;;;1999.90;999.90;;;;;;;6.57;75.45;102467.47;10337312;28;20060;-65
2024/01/28 15:58:42;;;;;;;1999.90;999.90;;;;;;;6.37;75.97;102465.16;10337365;28;20125;-65
2024/01/28 16:03:45;;;;;;;1999.90;999.90;;;;;;;6.14;76.74;102462.84;10319850;28;20046;-65
2024/01/28 16:08:47;;;;;;;1999.90;999.90;;;;;;;5.91;77.91;102466.53;10336525;28;20055;-65
2024/01/28 16:13:50;;;;;;;1999.90;999.90;;;;;;;6.00;77.84;102460.41;10336795;28;20057;-64
2024/01/28 16:18:53;;;;;;;1999.90;999.90;;;;;;;5.85;78.88;102458.81;10336551;28;20056;-64
2024/01/28 16:23:55;;;;;;;1999.90;999.90;;;;;;;5.77;77.99;102448.50;10319087;28;20129;-66
2024/01/28 16:28:58;;;;;;;1999.90;999.90;;;;;;;5.97;78.04;102443.97;10336120;28;20129;-64
2024/01/28 16:34:00;;;;;;;1999.90;999.90;;;;;;;6.06;76.22;102441.28;10335389;28;20482;-66
2024/01/28 16:39:03;;;;;;;1999.90;999.90;;;;;;;5.98;77.49;102435.28;10335801;28;20125;-66
2024/01/28 16:44:06;;;;;;;1999.90;999.90;;;;;;;5.87;78.02;102438.00;10335381;28;20126;-65
2024/01/28 16:49:08;;;;;;;1999.90;999.90;;;;;;;6.09;76.50;102434.28;10334465;28;20477;-65
2024/01/28 16:54:11;;;;;;;1999.90;999.90;;;;;;;5.96;76.90;102430.13;10334676;28;20050;-66
2024/01/28 16:59:14;;;;;;;1999.90;999.90;;;;;;;6.16;76.71;102427.28;10317919;28;20160;-67
2024/01/28 17:04:16;;;;;;;1999.90;999.90;;;;;;;6.26;75.30;102428.88;10334948;28;20141;-66
2024/01/28 17:09:18;;;;;;;1999.90;999.90;;;;;;;6.07;76.03;102423.06;10334829;28;20050;-65
2024/01/28 17:14:23;;;;;;;1999.90;999.90;;;;;;;6.09;76.04;102423.88;10334767;28;20057;-65
2024/01/28 17:19:26;;;;;;;1999.90;999.90;;;;;;;6.58;73.02;102424.97;10333925;28;20600;-64
2024/01/28 17:24:29;;;;;;;1999.90;999.90;;;;;;;6.19;75.19;102427.22;10334420;28;20042;-65
2024/01/28 17:29:32;;;;;;;1999.90;999.90;;;;;;;6.30;74.15;102420.16;10334393;28;20077;-65
2024/01/28 17:34:34;;;;;;;1999.90;999.90;;;;;;;6.09;75.14;102420.44;10334297;28;20050;-65
2024/01/28 17:39:37;;;;;;;1999.90;999.90;;;;;;;6.26;74.11;102423.66;10334243;28;20050;-64
2024/01/28 17:44:40;;;;;;;1999.90;999.90;;;;;;;6.35;73.76;102419.22;10316944;28;20140;-65
2024/01/28 17:49:42;;;;;;;1999.90;999.90;;;;;;;6.25;74.68;102414.13;10333392;28;20490;-65
2024/01/28 17:54:45;;;;;;;1999.90;999.90;;;;;;;5.91;75.53;102418.88;10333220;28;20077;-65
2024/01/28 17:59:47;;;;;;;1999.90;999.90;;;;;;;5.99;75.12;102411.03;10340893;28;20085;-65
2024/01/28 18:04:50;;;;;;;1999.90;999.90;;;;;;;6.07;75.20;102412.66;10341693;28;20056;-65
2024/01/28 18:09:52;;;;;;;1999.90;999.90;;;;;;;6.18;74.34;102424.66;10341563;28;20089;-65
2024/01/28 18:14:55;;;;;;;1999.90;999.90;;;;;;;6.07;74.05;102430.84;10341309;28;20050;-65
2024/01/28 18:19:58;;;;;;;1999.90;999.90;;;;;;;5.89;75.76;102411.09;10341250;28;20085;-65
2024/01/28 18:25:01;;;;;;;1999.90;999.90;;;;;;;6.03;75.42;102410.09;10340932;28;20052;-65
2024/01/28 18:30:04;;;;;;;1999.90;999.90;;;;;;;6.26;73.62;102404.59;10340841;28;20046;-65
2024/01/28 18:35:08;;;;;;;1999.90;999.90;;;;;;;6.09;74.32;102412.63;10340653;28;20081;-64
2024/01/28 18:40:13;;;;;;;1999.90;999.90;;;;;;;6.23;73.52;102402.03;10340459;28;20058;-65
2024/01/28 18:45:16;;;;;;;1999.90;999.90;;;;;;;6.10;74.12;102411.72;10339693;28;20046;-65
2024/01/28 18:50:19;;;;;;;1999.90;999.90;;;;;;;6.27;72.95;102406.31;10322310;28;20490;-64
2024/01/28 18:55:21;;;;;;;1999.90;999.90;;;;;;;6.27;72.59;102409.78;10322113;28;20129;-66
2024/01/28 19:00:23;;;;;;;1999.90;999.90;;;;;;;5.95;73.86;102407.53;10339640;28;20046;-65
2024/01/28 19:05:26;;;;;;;1999.90;999.90;;;;;;;6.17;73.07;102402.13;10338768;28;20042;-65
2024/01/28 19:10:28;;;;;;;1999.90;999.90;;;;;;;6.18;72.75;102409.91;10338671;28;20057;-65
2024/01/28 19:15:30;;;;;;;1999.90;999.90;;;;;;;6.04;73.48;102397.09;10339026;28;20105;-65
2024/01/28 19:20:33;;;;;;;1999.90;999.90;;;;;;;6.28;72.48;102403.69;10338159;28;20417;-65
2024/01/28 19:25:36;;;;;;;1999.90;999.90;;;;;;;6.06;73.00;102404.88;10338597;28;20050;-65
2024/01/28 19:30:38;;;;;;;1999.90;999.90;;;;;;;6.11;73.22;102396.13;10337925;28;20056;-65
2024/01/28 19:35:44;;;;;;;1999.90;999.90;;;;;;;6.26;72.38;102391.59;10321132;28;20134;-65
2024/01/28 19:40:47;;;;;;;1999.90;999.90;;;;;;;6.08;72.99;102392.69;10338182;28;20050;-65
2024/01/28 19:45:50;;;;;;;1999.90;999.90;;;;;;;6.24;72.66;102390.78;10337917;28;20046;-65
2024/01/28 19:50:53;;;;;;;1999.90;999.90;;;;;;;6.13;72.71;102383.94;10336630;28;20109;-65
2024/01/28 19:55:55;;;;;;;1999.90;999.90;;;;;;;6.06;73.23;102379.72;10337026;28;20116;-65
2024/01/28 20:00:58;;;;;;;1999.90;999.90;;;;;;;5.97;73.48;102379.84;10337398;28;20050;-65
2024/01/28 20:06:00;;;;;;;1999.90;999.90;;;;;;;6.03;73.95;102392.75;10337032;28;20057;-65
2024/01/28 20:11:03;;;;;;;1999.90;999.90;;;;;;;6.01;73.31;102393.66;10336965;28;20078;-65
2024/01/28 20:16:05;;;;;;;1999.90;999.90;;;;;;;6.06;73.44;102395.31;10319342;28;20046;-66
2024/01/28 20:21:08;;;;;;;1999.90;999.90;;;;;;;5.79;74.41;102395.63;10335689;28;20074;-65
2024/01/28 20:26:15;;;;;;;1999.90;999.90;;;;;;;5.68;74.52;102396.63;10335834;28;20050;-65
2024/01/28 20:31:17;;;;;;;1999.90;999.90;;;;;;;5.73;74.07;102402.63;10319376;28;20060;-65
2024/01/28 20:36:22;;;;;;;1999.90;999.90;;;;;;;5.94;73.46;102396.31;10335408;28;20050;-66
2024/01/28 20:41:24;;;;;;;1999.90;999.90;;;;;;;5.63;74.84;102403.63;10335805;28;20100;-65
2024/01/28 20:46:26;;;;;;;1999.90;999.90;;;;;;;5.48;75.60;102408.94;10334918;28;20481;-65
2024/01/28 20:51:29;;;;;;;1999.90;999.90;;;;;;;5.65;74.16;102412.25;10335455;28;20057;-65
2024/01/28 20:56:32;;;;;;;1999.90;999.90;;;;;;;5.60;74.88;102403.66;10334480;28;20058;-65
2024/01/28 21:01:35;;;;;;;1999.90;999.90;;;;;;;5.60;74.84;102395.84;10334498;28;20493;-65
2024/01/28 21:06:37;;;;;;;1999.90;999.90;;;;;;;5.47;75.64;102400.31;10334877;28;20061;-65
2024/01/28 21:11:40;;;;;;;1999.90;999.90;;;;;;;5.63;74.79;102392.34;10334234;28;20537;-65
2024/01/28 21:16:43;;;;;;;1999.90;999.90;;;;;;;5.53;74.74;102394.16;10334032;28;20406;-65
2024/01/28 21:21:45;;;;;;;1999.90;999.90;;;;;;;5.53;74.95;102400.25;10334633;28;20133;-65
2024/01/28 21:26:48;;;;;;;1999.90;999.90;;;;;;;5.47;75.31;102402.91;10334443;28;20151;-65
2024/01/28 21:31:51;;;;;;;1999.90;999.90;;;;;;;5.35;75.79;102400.44;10333526;28;20081;-65
2024/01/28 21:36:54;;;;;;;1999.90;999.90;;;;;;;5.39;75.08;102404.72;10333690;28;20050;-65
2024/01/28 21:41:57;;;;;;;1999.90;999.90;;;;;;;5.34;75.59;102403.91;10334210;28;20100;-65
2024/01/28 21:47:00;;;;;;;1999.90;999.90;;;;;;;5.23;75.95;102422.19;10316194;28;20046;-65
2024/01/28 21:52:02;;;;;;;1999.90;999.90;;;;;;;5.14;76.74;102407.53;10334052;28;20050;-65
2024/01/28 21:57:05;;;;;;;1999.90;999.90;;;;;;;5.14;76.58;102406.69;10332119;28;20046;-65
2024/01/28 22:02:08;;;;;;;1999.90;999.90;;;;;;;5.11;77.55;102406.69;10333828;28;20052;-65
2024/01/28 22:07:12;;;;;;;1999.90;999.90;;;;;;;5.05;77.11;102401.59;10333655;28;20058;-65
2024/01/28 22:12:15;;;;;;;1999.90;999.90;;;;;;;4.75;79.40;102401.78;10331865;28;20082;-65